Mitchellville, TN (37119)

11:43 PM CDT on May 28, 2015 (GMT -0500)
CnTAstro | | Change Station
CLOSE
Current Station
Personal Weather Station
Location: Portland, TN
Elevation: 814 ft
Nearby Weather Stations

Elev 814 ft 36.61 °N, 86.45 °W | Updated 2 minutes ago

Overcast
Overcast
69.7 °F
Feels Like 69.7 °F
N
6.0
Wind Variable Wind from South
Gusts 6.0 mph

Today
High -- | Low -- °F
--% Chance of Precip.
Yesterday
High -- | Low -- °F
Precip. -- in
5:30 AM 7:56 PM
Waxing Gibbous, 81% visible
Pressure 30.14 in
Visibility 10.0 miles
Clouds Scattered Clouds 4800 ft
Dew Point 66 °F
Humidity 87%
Rainfall 0.00 in
Snow Depth Not available.
UV 0 out of 12
Pollen 7.10 out of 12
Air Quality Not available.
Flu Activity Sporadic
METAR KBWG 290353Z AUTO 12006KT 10SM SCT048 22/19 A3015 RMK AO2 SLP205 T02220189

More Conditions Fewer Conditions

Pressure 30.14 in
Visibility 10.0 miles
Clouds Scattered Clouds 4800 ft
Dew Point 66 °F
Humidity 87%
Rainfall 0.00 in
Snow Depth Not available.
UV 0 out of 12
Pollen 7.10 out of 12
Air Quality Not available.
Flu Activity Sporadic
METAR KBWG 290353Z AUTO 12006KT 10SM SCT048 22/19 A3015 RMK AO2 SLP205 T02220189

More Conditions Fewer Conditions

10-Day Weather Forecast

Almanac

Astronomy

May. 28, 2015 Rise Set
Actual Time
Civil Twilight
Nautical Twilight
Astronomical Twilight
Moon
Length of Visible Light
Length of Day
Tomorrow will be .
, % of the Moon is Illuminated

Today's Extremes

State Highs State Lows

Community

WunderPhotos

Upload Photos

1,825,209 photos uploaded!

WunderBlogs® & News

Nearby

Air Quality

  Air Quality AQ Index Pollutant
Not available.

Snow Depth

Station Depth Elevation

Earthquake Activity

City Distance Mag. Time & Date
Minimum magnitude displayed is 2.5.

Coastal Water Temperatures

Place Temperature

Stations

Nearby Weather Stations

Station Location Temp. Windchill Dew Point Humidity Wind Precip. Elev Updated Type